aviador You're here:

LFBU Decoded Metar

ANGOULEME in FRANCE
Report Time2018-02-18 21:30:00
UTC Time2018-02-18 21:53:43
Flight Rules mvfr MVFR
Wind130° at 04 kt
W.Decomp.*RWY 10: 3.4 kt HW 2.1 kt RCW
W.Rank130° ranks 20
Current wind is below 130° avg. (5.2)
Visibility9999 m
Phenomena:N/A
Clouds:Overcast 023 Hf
Expected CloudBase > 400 ft AGL from Temp-Dew spread
Ceiling2,300 ft
Temp06°C (ISA -8)
Dew Point05°C (93% RH)
AAT3.4°C
QNH1021 hPa
Density Alt-696 ft
Elevation436 ft
Report Wrong Elevation
Raw Report
METAR LFBU 182130Z AUTO 13004KT 090V160 9999 OVC023 06/05 Q1021=

Extra information for LFBU:More info

Metar Taf Metar & Taf Last 4 Metars F.Rules Stats Wind Profile Meteogram Temp Stats Airport Information Weather charts Add Link Nearby VenuesMetar ALERT Operation Metar Decoded Social comments